createdAt,value
2022-09-09T00:00:18.339Z,876
2022-09-09T00:02:18.203Z,891
2022-09-09T00:04:17.974Z,801
2022-09-09T00:06:18.112Z,901
2022-09-09T00:08:17.912Z,843
2022-09-09T00:10:17.830Z,814
2022-09-09T00:12:17.701Z,865
2022-09-09T00:14:17.591Z,819
2022-09-09T00:16:18.369Z,872
2022-09-09T00:18:18.455Z,882
2022-09-09T00:20:18.277Z,826
2022-09-09T00:22:18.064Z,853
2022-09-09T00:24:17.897Z,880
2022-09-09T00:26:17.708Z,768
2022-09-09T00:28:17.493Z,811
2022-09-09T00:30:18.334Z,818
2022-09-09T00:32:18.136Z,857
2022-09-09T00:34:19.302Z,844
2022-09-09T00:36:18.016Z,795
2022-09-09T00:38:17.748Z,805
2022-09-09T00:40:17.703Z,808
2022-09-09T00:42:17.595Z,854
2022-09-09T00:44:17.491Z,831
2022-09-09T00:46:18.415Z,723
2022-09-09T00:48:18.415Z,799
2022-09-09T00:50:18.215Z,814
2022-09-09T00:52:18.288Z,826
2022-09-09T00:54:18.161Z,828
2022-09-09T00:56:18.091Z,816
2022-09-09T00:58:19.552Z,744
2022-09-09T01:00:18.320Z,870
2022-09-09T01:02:18.141Z,797
2022-09-09T01:04:18.267Z,839
2022-09-09T01:06:18.100Z,832
2022-09-09T01:08:18.010Z,813
2022-09-09T01:10:19.470Z,793
2022-09-09T01:12:18.295Z,789
2022-09-09T01:14:18.133Z,784
2022-09-09T01:16:18.326Z,800
2022-09-09T01:18:17.374Z,703
2022-09-09T01:20:17.480Z,701
2022-09-09T01:22:19.146Z,749
2022-09-09T01:24:18.137Z,730
2022-09-09T01:26:19.364Z,706
2022-09-09T01:28:18.232Z,772
2022-09-09T01:30:18.092Z,832
2022-09-09T01:32:18.283Z,761
2022-09-09T01:34:18.214Z,677
2022-09-09T01:36:18.106Z,777
2022-09-09T01:38:18.091Z,736
2022-09-09T01:40:18.176Z,704
2022-09-09T01:42:18.227Z,811
2022-09-09T01:44:18.037Z,713
2022-09-09T01:46:18.394Z,662
2022-09-09T01:48:18.294Z,741
2022-09-09T01:50:18.569Z,748
2022-09-09T01:52:18.309Z,830
2022-09-09T01:54:18.068Z,778
2022-09-09T01:56:18.189Z,778
2022-09-09T01:58:18.336Z,785
2022-09-09T02:00:18.131Z,805
2022-09-09T02:02:18.201Z,695
2022-09-09T02:04:18.068Z,724
2022-09-09T02:06:17.880Z,744
2022-09-09T02:08:17.605Z,765
2022-09-09T02:10:17.495Z,766
2022-09-09T02:12:17.390Z,795
2022-09-09T02:14:18.178Z,821
2022-09-09T02:16:18.129Z,729
2022-09-09T02:18:18.045Z,768
2022-09-09T02:20:17.815Z,782
2022-09-09T02:22:17.713Z,714
2022-09-09T02:24:17.506Z,727
2022-09-09T02:26:18.233Z,713
2022-09-09T02:28:18.064Z,771
2022-09-09T02:30:18.020Z,712
2022-09-09T02:32:17.851Z,762
2022-09-09T02:34:17.727Z,833
2022-09-09T02:36:17.496Z,589
2022-09-09T02:38:18.296Z,764
2022-09-09T02:40:18.523Z,762
2022-09-09T02:42:18.308Z,740
2022-09-09T02:44:18.238Z,704
2022-09-09T02:46:18.013Z,780
2022-09-09T02:48:17.954Z,769
2022-09-09T02:50:18.111Z,749
2022-09-09T02:52:18.004Z,728
2022-09-09T02:54:17.940Z,677
2022-09-09T02:56:17.997Z,660
2022-09-09T02:58:18.259Z,784
2022-09-09T03:00:18.219Z,675
2022-09-09T03:02:18.252Z,676
2022-09-09T03:04:18.107Z,669
2022-09-09T03:06:17.962Z,719
2022-09-09T03:08:17.886Z,699
2022-09-09T03:10:18.149Z,780
2022-09-09T03:12:18.155Z,715
2022-09-09T03:14:18.121Z,733
2022-09-09T03:16:17.978Z,747
2022-09-09T03:18:17.653Z,727
2022-09-09T03:20:17.457Z,736
2022-09-09T03:22:19.755Z,792
2022-09-09T03:24:17.550Z,692
2022-09-09T03:26:18.338Z,741
2022-09-09T03:28:18.219Z,759
2022-09-09T03:30:18.003Z,712
2022-09-09T03:32:18.120Z,776
2022-09-09T03:34:17.937Z,798
2022-09-09T03:36:17.664Z,750
2022-09-09T03:38:17.470Z,743
2022-09-09T03:40:18.149Z,764
2022-09-09T03:42:17.987Z,748
2022-09-09T03:44:17.873Z,728
2022-09-09T03:46:18.141Z,734
2022-09-09T03:48:17.520Z,698
2022-09-09T03:50:17.747Z,743
2022-09-09T03:52:20.476Z,786
2022-09-09T03:54:17.712Z,777
2022-09-09T03:56:17.466Z,732
2022-09-09T03:58:17.409Z,739
2022-09-09T04:00:17.506Z,729
2022-09-09T04:02:17.823Z,665
2022-09-09T04:04:17.643Z,761
2022-09-09T04:06:17.518Z,719
2022-09-09T04:08:17.532Z,723
2022-09-09T04:10:20.922Z,699
2022-09-09T04:12:17.811Z,679
2022-09-09T04:14:17.689Z,728
2022-09-09T04:16:17.561Z,743
2022-09-09T04:18:19.980Z,649
2022-09-09T04:20:17.892Z,712
2022-09-09T04:22:18.146Z,702
2022-09-09T04:24:18.067Z,706
2022-09-09T04:26:17.486Z,670
2022-09-09T04:28:18.475Z,747
2022-09-09T04:30:17.515Z,697
2022-09-09T04:32:18.321Z,723
2022-09-09T04:34:18.156Z,686
2022-09-09T04:36:17.997Z,684
2022-09-09T04:38:17.800Z,693
2022-09-09T04:40:19.919Z,664
2022-09-09T04:42:17.728Z,742
2022-09-09T04:44:17.498Z,710
2022-09-09T04:46:18.362Z,603
2022-09-09T04:48:18.232Z,688
2022-09-09T04:50:21.273Z,696
2022-09-09T04:52:21.515Z,736
2022-09-09T04:54:18.273Z,728
2022-09-09T04:56:18.097Z,751
2022-09-09T04:58:17.919Z,696
2022-09-09T05:00:18.490Z,714
2022-09-09T05:02:18.447Z,686
2022-09-09T05:04:18.233Z,664
2022-09-09T05:06:18.184Z,750
2022-09-09T05:08:17.976Z,680
2022-09-09T05:10:18.168Z,730
2022-09-09T05:12:23.298Z,666
2022-09-09T05:14:18.117Z,651
2022-09-09T05:16:18.101Z,687
2022-09-09T05:18:23.167Z,706
2022-09-09T05:20:18.014Z,707
2022-09-09T05:22:17.827Z,701
2022-09-09T05:24:17.528Z,712
2022-09-09T05:26:18.401Z,724
2022-09-09T05:28:18.170Z,688
2022-09-09T05:30:17.637Z,621
2022-09-09T05:32:18.371Z,734
2022-09-09T05:34:18.193Z,693
2022-09-09T05:36:18.103Z,711
2022-09-09T05:38:18.427Z,713
2022-09-09T05:40:18.211Z,630
2022-09-09T05:42:18.109Z,705
2022-09-09T05:44:17.899Z,646
2022-09-09T05:46:17.740Z,600
2022-09-09T05:48:17.656Z,610
2022-09-09T05:50:17.472Z,623
2022-09-09T05:52:18.347Z,635
2022-09-09T05:54:18.070Z,554
2022-09-09T05:56:18.278Z,572
2022-09-09T05:58:18.232Z,570
2022-09-09T06:00:18.032Z,512
2022-09-09T06:02:17.914Z,619
2022-09-09T06:04:17.779Z,586
2022-09-09T06:06:17.573Z,509
2022-09-09T06:08:18.331Z,513
2022-09-09T06:10:18.065Z,635
2022-09-09T06:12:17.943Z,554
2022-09-09T06:14:18.108Z,627
2022-09-09T06:16:18.358Z,538
2022-09-09T06:18:23.380Z,501
2022-09-09T06:20:18.174Z,526
2022-09-09T06:22:17.935Z,522
2022-09-09T06:24:17.810Z,513
2022-09-09T06:26:17.596Z,515
2022-09-09T06:28:17.387Z,473
2022-09-09T06:30:18.337Z,522
2022-09-09T06:32:18.085Z,590
2022-09-09T06:34:18.202Z,506
2022-09-09T06:36:18.007Z,532
2022-09-09T06:38:18.010Z,558
2022-09-09T06:40:17.812Z,492
2022-09-09T06:42:17.545Z,569
2022-09-09T06:44:18.330Z,548
2022-09-09T06:46:18.247Z,558
2022-09-09T06:48:18.083Z,488
2022-09-09T06:50:18.305Z,537
2022-09-09T06:52:18.090Z,535
2022-09-09T06:54:17.825Z,619
2022-09-09T06:56:18.180Z,531
2022-09-09T06:58:17.978Z,524
2022-09-09T07:00:17.713Z,597
2022-09-09T07:02:17.598Z,536
2022-09-09T07:04:17.497Z,618
2022-09-09T07:06:18.303Z,496
2022-09-09T07:08:18.076Z,546
2022-09-09T07:10:17.869Z,526
2022-09-09T07:12:17.732Z,608
2022-09-09T07:14:17.485Z,608
2022-09-09T07:16:18.402Z,514
2022-09-09T07:18:17.409Z,611
2022-09-09T07:20:18.312Z,610
2022-09-09T07:22:18.160Z,546
2022-09-09T07:24:18.120Z,622
2022-09-09T07:26:17.976Z,517
2022-09-09T07:28:17.785Z,553
2022-09-09T07:30:21.973Z,520
2022-09-09T07:32:18.033Z,541
2022-09-09T07:34:17.734Z,606
2022-09-09T07:36:17.698Z,558
2022-09-09T07:38:17.518Z,595
2022-09-09T07:40:18.368Z,577
2022-09-09T07:42:18.199Z,606
2022-09-09T07:44:17.998Z,619
2022-09-09T07:46:18.104Z,552
2022-09-09T07:48:18.347Z,529
2022-09-09T07:50:18.259Z,580
2022-09-09T07:52:19.487Z,529
2022-09-09T07:54:18.064Z,601
2022-09-09T07:56:17.878Z,604
2022-09-09T07:58:17.652Z,617
2022-09-09T08:00:17.469Z,606
2022-09-09T08:02:18.444Z,597
2022-09-09T08:04:18.254Z,576
2022-09-09T08:06:18.111Z,612
2022-09-09T08:08:17.874Z,600
2022-09-09T08:10:17.729Z,586
2022-09-09T08:12:17.485Z,604
2022-09-09T08:14:18.171Z,605
2022-09-09T08:16:18.218Z,599
2022-09-09T08:18:17.390Z,599
2022-09-09T08:20:18.179Z,549
2022-09-09T08:22:18.180Z,681
2022-09-09T08:24:17.978Z,670
2022-09-09T08:26:17.784Z,637
2022-09-09T08:28:17.586Z,610
2022-09-09T08:30:17.475Z,582
2022-09-09T08:32:18.236Z,602
2022-09-09T08:34:18.015Z,632
2022-09-09T08:36:17.742Z,631
2022-09-09T08:38:18.149Z,609
2022-09-09T08:40:18.162Z,572
2022-09-09T08:42:18.011Z,590
2022-09-09T08:44:17.806Z,537
2022-09-09T08:46:18.018Z,647
2022-09-09T08:48:18.136Z,654
2022-09-09T08:50:18.368Z,510
2022-09-09T08:52:18.159Z,643
2022-09-09T08:54:25.678Z,587
2022-09-09T08:56:18.286Z,535
2022-09-09T08:58:18.091Z,646
2022-09-09T09:00:17.871Z,626
2022-09-09T09:02:18.150Z,676
2022-09-09T09:04:18.409Z,556
2022-09-09T09:06:18.197Z,655
2022-09-09T09:08:18.001Z,556
2022-09-09T09:10:37.933Z,550
2022-09-09T09:12:17.744Z,604
2022-09-09T09:14:17.573Z,676
2022-09-09T09:16:17.330Z,736
2022-09-09T09:18:18.347Z,664
2022-09-09T09:20:18.139Z,761
2022-09-09T09:22:18.144Z,715
2022-09-09T09:24:21.175Z,762
2022-09-09T09:26:18.135Z,733
2022-09-09T09:28:17.858Z,692
2022-09-09T09:30:25.554Z,779
2022-09-09T09:32:17.709Z,700
2022-09-09T09:34:17.557Z,718
2022-09-09T09:36:17.301Z,643
2022-09-09T09:40:17.850Z,787
2022-09-09T09:42:18.868Z,726
2022-09-09T09:44:18.261Z,804
2022-09-09T09:46:18.421Z,781
2022-09-09T09:48:18.259Z,796
2022-09-09T09:50:17.744Z,843
2022-09-09T09:52:17.533Z,796
2022-09-09T09:54:18.377Z,743
2022-09-09T09:56:18.148Z,809
2022-09-09T09:58:18.492Z,864
2022-09-09T10:00:17.847Z,797
2022-09-09T10:02:17.722Z,766
2022-09-09T10:04:17.636Z,845
2022-09-09T10:06:17.439Z,823
2022-09-09T10:08:18.189Z,804
2022-09-09T10:10:18.006Z,773
2022-09-09T10:12:17.854Z,803
2022-09-09T10:14:17.676Z,778
2022-09-09T10:16:22.253Z,846
2022-09-09T10:18:18.351Z,832
2022-09-09T10:20:18.117Z,742
2022-09-09T10:22:18.373Z,814
2022-09-09T10:24:17.409Z,695
2022-09-09T10:26:18.348Z,828
2022-09-09T10:28:18.170Z,832
2022-09-09T10:30:17.389Z,808
2022-09-09T10:32:18.209Z,780
2022-09-09T10:34:17.480Z,758
2022-09-09T10:36:17.544Z,819
2022-09-09T10:38:18.289Z,825
2022-09-09T10:40:18.411Z,828
2022-09-09T10:42:17.331Z,797
2022-09-09T10:44:18.336Z,760
2022-09-09T10:46:18.269Z,850
2022-09-09T10:48:18.350Z,823
2022-09-09T10:50:18.341Z,878
2022-09-09T10:52:17.490Z,785
2022-09-09T10:54:18.254Z,859
2022-09-09T10:56:18.162Z,811
2022-09-09T10:58:17.448Z,879
2022-09-09T11:00:18.289Z,790
2022-09-09T11:02:18.089Z,836
2022-09-09T11:04:17.873Z,870
2022-09-09T11:06:18.422Z,839
2022-09-09T11:08:18.312Z,814
2022-09-09T11:10:18.078Z,822
2022-09-09T11:12:18.098Z,806
2022-09-09T11:14:18.129Z,841
2022-09-09T11:16:18.403Z,821
2022-09-09T11:18:18.268Z,790
2022-09-09T11:20:18.050Z,771
2022-09-09T11:22:17.925Z,823
2022-09-09T11:24:17.834Z,881
2022-09-09T11:26:17.565Z,805
2022-09-09T11:28:17.732Z,788
2022-09-09T11:30:32.263Z,840
2022-09-09T11:32:18.160Z,859
2022-09-09T11:34:17.999Z,821
2022-09-09T11:36:18.294Z,728
2022-09-09T11:38:18.211Z,860
2022-09-09T11:40:17.937Z,794
2022-09-09T11:42:17.917Z,777
2022-09-09T11:44:17.703Z,875
2022-09-09T11:46:17.510Z,762
2022-09-09T11:48:18.358Z,832
2022-09-09T11:50:18.160Z,843
2022-09-09T11:52:17.738Z,866
2022-09-09T11:54:17.402Z,883
2022-09-09T11:56:18.091Z,760
2022-09-09T11:58:17.925Z,819
2022-09-09T12:00:17.647Z,863
2022-09-09T12:02:17.534Z,853
2022-09-09T12:04:21.941Z,880
2022-09-09T12:06:17.945Z,767
2022-09-09T12:08:17.989Z,863
2022-09-09T12:10:17.744Z,881
2022-09-09T12:12:17.731Z,856
2022-09-09T12:14:17.984Z,852
2022-09-09T12:16:17.976Z,739
2022-09-09T12:18:17.997Z,815
2022-09-09T12:20:17.844Z,745
2022-09-09T12:22:18.134Z,902
2022-09-09T12:24:17.971Z,782
2022-09-09T12:26:17.782Z,894
2022-09-09T12:28:17.559Z,838
2022-09-09T12:30:17.359Z,805
2022-09-09T12:32:17.366Z,832
2022-09-09T12:34:17.476Z,850
2022-09-09T12:36:18.872Z,851
2022-09-09T12:38:17.888Z,860
2022-09-09T12:40:17.696Z,818
2022-09-09T12:42:17.641Z,873
2022-09-09T12:44:17.446Z,851
2022-09-09T12:46:18.347Z,784
2022-09-09T12:48:18.301Z,878
2022-09-09T12:50:18.023Z,874
2022-09-09T12:52:18.013Z,831
2022-09-09T12:54:17.813Z,801
2022-09-09T12:56:17.602Z,859
2022-09-09T12:58:17.624Z,870
2022-09-09T13:00:17.519Z,794
2022-09-09T13:02:17.841Z,889
2022-09-09T13:04:17.668Z,850
2022-09-09T13:06:17.464Z,895
2022-09-09T13:08:18.193Z,812
2022-09-09T13:10:21.344Z,879
2022-09-09T13:12:17.432Z,901
2022-09-09T13:14:18.511Z,868
2022-09-09T13:16:18.410Z,831
2022-09-09T13:18:17.507Z,852
2022-09-09T13:20:18.300Z,893
2022-09-09T13:22:18.163Z,801
2022-09-09T13:24:17.972Z,889
2022-09-09T13:26:17.803Z,873
2022-09-09T13:28:17.870Z,802
2022-09-09T13:30:17.994Z,818
2022-09-09T13:32:18.151Z,791
2022-09-09T13:34:17.838Z,887
2022-09-09T13:36:17.898Z,847
2022-09-09T13:38:17.705Z,826
2022-09-09T13:40:17.845Z,869
2022-09-09T13:42:17.787Z,871
2022-09-09T13:44:17.647Z,817
2022-09-09T13:46:18.356Z,870
2022-09-09T13:48:18.070Z,815
2022-09-09T13:50:17.891Z,810
2022-09-09T13:52:17.651Z,842
2022-09-09T13:54:17.491Z,837
2022-09-09T13:56:18.309Z,808
2022-09-09T13:58:18.172Z,784
2022-09-09T14:00:17.890Z,843
2022-09-09T14:02:17.806Z,894
2022-09-09T14:04:17.817Z,875
2022-09-09T14:06:17.683Z,834
2022-09-09T14:08:17.724Z,709
2022-09-09T14:10:22.009Z,797
2022-09-09T14:12:17.835Z,777
2022-09-09T14:14:17.640Z,785
2022-09-09T14:16:17.438Z,872
2022-09-09T14:18:17.584Z,866
2022-09-09T14:20:17.538Z,810
2022-09-09T14:22:18.261Z,833
2022-09-09T14:24:18.142Z,810
2022-09-09T14:26:18.101Z,860
2022-09-09T14:28:20.459Z,883
2022-09-09T14:30:17.697Z,865
2022-09-09T14:32:17.471Z,853
2022-09-09T14:34:18.237Z,866
2022-09-09T14:36:18.128Z,821
2022-09-09T14:38:19.148Z,805
2022-09-09T14:40:18.321Z,877
2022-09-09T14:42:17.501Z,826
2022-09-09T14:44:18.308Z,812
2022-09-09T14:46:18.078Z,919
2022-09-09T14:48:17.880Z,801
2022-09-09T14:50:17.689Z,808
2022-09-09T14:52:17.753Z,816
2022-09-09T14:54:17.550Z,790
2022-09-09T14:56:17.680Z,842
2022-09-09T14:58:18.051Z,876
2022-09-09T15:00:17.790Z,813
2022-09-09T15:02:17.553Z,837
2022-09-09T15:04:17.566Z,831
2022-09-09T15:06:17.497Z,833
2022-09-09T15:08:18.340Z,942
2022-09-09T15:10:18.090Z,856
2022-09-09T15:12:22.323Z,910
2022-09-09T15:14:21.072Z,789
2022-09-09T15:16:17.729Z,913
2022-09-09T15:18:17.806Z,870
2022-09-09T15:20:17.643Z,840
2022-09-09T15:22:17.693Z,893
2022-09-09T15:24:17.973Z,906
2022-09-09T15:26:17.935Z,904
2022-09-09T15:28:17.705Z,879
2022-09-09T15:30:17.454Z,907
2022-09-09T15:32:18.290Z,865
2022-09-09T15:34:18.047Z,835
2022-09-09T15:36:17.773Z,843
2022-09-09T15:38:17.661Z,856
2022-09-09T15:40:17.717Z,829
2022-09-09T15:42:17.632Z,921
2022-09-09T15:44:22.272Z,863
2022-09-09T15:46:18.075Z,838
2022-09-09T15:48:17.904Z,864
2022-09-09T15:50:17.719Z,832
2022-09-09T15:52:17.572Z,921
2022-09-09T15:54:18.330Z,943
2022-09-09T15:56:18.116Z,908
2022-09-09T15:58:17.814Z,876
2022-09-09T16:00:17.623Z,946
2022-09-09T16:02:17.494Z,901
2022-09-09T16:04:17.555Z,910
2022-09-09T16:06:18.302Z,817
2022-09-09T16:08:18.055Z,875
2022-09-09T16:10:17.863Z,907
2022-09-09T16:12:17.639Z,865
2022-09-09T16:14:17.441Z,960
2022-09-09T16:16:18.153Z,943
2022-09-09T16:18:18.218Z,970
2022-09-09T16:20:18.066Z,1002
2022-09-09T16:22:17.912Z,1001
2022-09-09T16:24:17.726Z,881
2022-09-09T16:26:17.594Z,915
2022-09-09T16:28:17.425Z,897
2022-09-09T16:30:18.264Z,912
2022-09-09T16:32:18.198Z,912
2022-09-09T16:34:23.007Z,981
2022-09-09T16:36:17.897Z,1019
2022-09-09T16:38:17.737Z,953
2022-09-09T16:40:17.657Z,947
2022-09-09T16:42:17.537Z,1026
2022-09-09T16:44:18.337Z,1016
2022-09-09T16:46:18.251Z,968
2022-09-09T16:48:18.090Z,973
2022-09-09T16:50:17.956Z,963
2022-09-09T16:52:20.510Z,1027
2022-09-09T16:54:17.500Z,960
2022-09-09T16:56:18.233Z,943
2022-09-09T16:58:18.012Z,929
2022-09-09T17:00:17.757Z,968
2022-09-09T17:02:17.639Z,1057
2022-09-09T17:04:17.561Z,1030
2022-09-09T17:06:17.322Z,1011
2022-09-09T17:08:18.137Z,913
2022-09-09T17:10:17.872Z,1082
2022-09-09T17:12:17.655Z,1009
2022-09-09T17:14:18.325Z,918
2022-09-09T17:16:17.570Z,974
2022-09-09T17:18:17.614Z,1040
2022-09-09T17:20:17.758Z,1042
2022-09-09T17:22:18.035Z,1027
2022-09-09T17:24:17.887Z,1042
2022-09-09T17:26:17.787Z,923
2022-09-09T17:28:17.571Z,979
2022-09-09T17:30:18.307Z,941
2022-09-09T17:32:18.088Z,915
2022-09-09T17:34:17.920Z,954
2022-09-09T17:36:17.694Z,973
2022-09-09T17:38:17.632Z,939
2022-09-09T17:40:17.472Z,974
2022-09-09T17:42:17.587Z,987
2022-09-09T17:44:17.565Z,967
2022-09-09T17:46:17.549Z,1023
2022-09-09T17:48:17.705Z,1026
2022-09-09T17:50:17.515Z,1074
2022-09-09T17:52:17.642Z,1046
2022-09-09T17:54:17.466Z,1037
2022-09-09T17:56:18.268Z,957
2022-09-09T17:58:17.986Z,1020
2022-09-09T18:00:17.775Z,969
2022-09-09T18:02:17.626Z,1037
2022-09-09T18:04:17.630Z,1038
2022-09-09T18:06:22.724Z,954
2022-09-09T18:08:17.522Z,1058
2022-09-09T18:10:18.356Z,1033
2022-09-09T18:12:18.146Z,1017
2022-09-09T18:14:18.177Z,936
2022-09-09T18:16:17.989Z,976
2022-09-09T18:18:18.006Z,911
2022-09-09T18:20:17.871Z,975
2022-09-09T18:22:17.615Z,993
2022-09-09T18:24:17.413Z,999
2022-09-09T18:26:17.630Z,1015
2022-09-09T18:28:19.412Z,1016
2022-09-09T18:30:17.949Z,997
2022-09-09T18:32:17.650Z,1081
2022-09-09T18:34:17.482Z,1081
2022-09-09T18:36:17.630Z,979
2022-09-09T18:38:17.758Z,988
2022-09-09T18:40:17.438Z,963
2022-09-09T18:42:18.374Z,1037
2022-09-09T18:44:18.230Z,945
2022-09-09T18:46:18.095Z,1034
2022-09-09T18:48:17.917Z,984
2022-09-09T18:50:22.754Z,1019
2022-09-09T18:52:17.476Z,1072
2022-09-09T18:54:18.325Z,1072
2022-09-09T18:56:18.167Z,981
2022-09-09T18:58:17.920Z,1002
2022-09-09T19:00:17.685Z,988
2022-09-09T19:02:17.394Z,999
2022-09-09T19:04:17.587Z,949
2022-09-09T19:06:17.392Z,1029
2022-09-09T19:08:18.153Z,1025
2022-09-09T19:10:17.862Z,1020
2022-09-09T19:12:17.589Z,945
2022-09-09T19:14:17.642Z,955
2022-09-09T19:16:17.336Z,955
2022-09-09T19:18:18.247Z,953
2022-09-09T19:20:18.148Z,1002
2022-09-09T19:22:17.896Z,918
2022-09-09T19:24:17.736Z,940
2022-09-09T19:26:17.442Z,1013
2022-09-09T19:28:18.276Z,1028
2022-09-09T19:30:18.079Z,888
2022-09-09T19:34:17.307Z,867
2022-09-09T19:36:17.447Z,923
2022-09-09T19:38:18.267Z,946
2022-09-09T19:40:17.842Z,930
2022-09-09T19:42:17.691Z,1023
2022-09-09T19:44:17.456Z,959
2022-09-09T19:46:18.248Z,936
2022-09-09T19:48:18.269Z,968
2022-09-09T19:50:18.067Z,986
2022-09-09T19:52:18.258Z,957
2022-09-09T19:54:18.065Z,889
2022-09-09T19:56:17.880Z,979
2022-09-09T19:58:17.556Z,834
2022-09-09T20:00:18.338Z,914
2022-09-09T20:02:18.317Z,1004
2022-09-09T20:04:17.467Z,957
2022-09-09T20:06:18.319Z,966
2022-09-09T20:08:18.276Z,901
2022-09-09T20:10:17.417Z,955
2022-09-09T20:12:18.178Z,981
2022-09-09T20:14:17.819Z,947
2022-09-09T20:16:17.581Z,910
2022-09-09T20:18:17.601Z,900
2022-09-09T20:20:18.358Z,940
2022-09-09T20:22:18.149Z,925
2022-09-09T20:24:17.945Z,881
2022-09-09T20:26:17.750Z,797
2022-09-09T20:28:17.713Z,877
2022-09-09T20:30:17.498Z,948
2022-09-09T20:32:18.280Z,919
2022-09-09T20:34:18.201Z,934
2022-09-09T20:36:17.934Z,920
2022-09-09T20:38:17.740Z,902
2022-09-09T20:40:17.594Z,887
2022-09-09T20:42:17.645Z,828
2022-09-09T20:44:17.508Z,841
2022-09-09T20:46:18.308Z,873
2022-09-09T20:48:18.252Z,810
2022-09-09T20:50:18.123Z,896
2022-09-09T20:52:17.937Z,858
2022-09-09T20:54:17.769Z,874
2022-09-09T20:56:17.603Z,773
2022-09-09T20:58:17.409Z,748
2022-09-09T21:00:18.178Z,877
2022-09-09T21:02:17.897Z,824
2022-09-09T21:04:17.966Z,847
2022-09-09T21:06:17.721Z,831
2022-09-09T21:08:17.506Z,707
2022-09-09T21:10:18.319Z,815
2022-09-09T21:12:18.100Z,781
2022-09-09T21:14:18.012Z,780
2022-09-09T21:16:17.771Z,856
2022-09-09T21:18:17.630Z,731
2022-09-09T21:20:17.803Z,735
2022-09-09T21:22:17.621Z,781
2022-09-09T21:24:17.829Z,773
2022-09-09T21:26:17.957Z,758
2022-09-09T21:28:17.738Z,743
2022-09-09T21:30:17.545Z,831
2022-09-09T21:32:18.340Z,739
2022-09-09T21:34:18.163Z,768
2022-09-09T21:36:17.881Z,728
2022-09-09T21:38:17.644Z,791
2022-09-09T21:40:17.724Z,753
2022-09-09T21:42:17.749Z,803
2022-09-09T21:44:17.874Z,797
2022-09-09T21:46:18.177Z,867
2022-09-09T21:48:18.044Z,799
2022-09-09T21:50:17.839Z,839
2022-09-09T21:52:17.634Z,765
2022-09-09T21:54:17.455Z,774
2022-09-09T21:56:18.215Z,775
2022-09-09T21:58:17.571Z,711
2022-09-09T22:00:17.333Z,698
2022-09-09T22:02:18.256Z,707
2022-09-09T22:04:18.033Z,730
2022-09-09T22:06:17.782Z,635
2022-09-09T22:08:17.727Z,778
2022-09-09T22:10:17.781Z,798
2022-09-09T22:12:17.646Z,771
2022-09-09T22:14:17.656Z,731
2022-09-09T22:16:17.800Z,809
2022-09-09T22:18:17.703Z,810
2022-09-09T22:20:17.827Z,705
2022-09-09T22:22:17.869Z,750
2022-09-09T22:24:17.608Z,720
2022-09-09T22:26:18.327Z,789
2022-09-09T22:28:18.074Z,706
2022-09-09T22:30:17.923Z,806
2022-09-09T22:32:18.230Z,774
2022-09-09T22:34:18.172Z,780
2022-09-09T22:36:18.018Z,678
2022-09-09T22:38:18.293Z,729
2022-09-09T22:40:18.086Z,720
2022-09-09T22:42:17.840Z,655
2022-09-09T22:44:17.836Z,688
2022-09-09T22:46:17.797Z,643
2022-09-09T22:48:17.567Z,570
2022-09-09T22:50:22.713Z,563
2022-09-09T22:52:17.488Z,533
2022-09-09T22:54:20.863Z,569
2022-09-09T22:56:21.635Z,583
2022-09-09T22:58:17.990Z,643
2022-09-09T23:00:17.786Z,507
2022-09-09T23:02:17.791Z,590
2022-09-09T23:04:18.705Z,616
2022-09-09T23:06:18.197Z,608
2022-09-09T23:08:17.996Z,648
2022-09-09T23:10:17.806Z,650
2022-09-09T23:12:17.708Z,678
2022-09-09T23:14:17.926Z,659
2022-09-09T23:16:17.777Z,689
2022-09-09T23:18:17.781Z,629
2022-09-09T23:20:17.814Z,614
2022-09-09T23:22:17.652Z,621
2022-09-09T23:24:17.887Z,641
2022-09-09T23:26:17.679Z,594
2022-09-09T23:28:17.635Z,638
2022-09-09T23:30:17.440Z,675
2022-09-09T23:32:18.213Z,561
2022-09-09T23:34:17.976Z,666
2022-09-09T23:36:17.769Z,568
2022-09-09T23:38:17.808Z,630
2022-09-09T23:40:17.695Z,652
2022-09-09T23:42:17.456Z,596
2022-09-09T23:44:18.236Z,679
2022-09-09T23:46:18.051Z,643
2022-09-09T23:48:17.877Z,668
2022-09-09T23:50:17.723Z,588
2022-09-09T23:52:17.608Z,586
2022-09-09T23:54:17.465Z,654
2022-09-09T23:56:18.223Z,567
2022-09-09T23:58:17.975Z,679
